Time;durP1;ratioP1;P1;durP2;ratioP2;P2;SDS_P1;SDS_P2;PMS_P1;PMS_P2;Temp;Humidity;BMP_temperature;BMP_pressure;BME280_temperature;BME280_humidity;BME280_pressure;Samples;Min_cycle;Max_cycle;Signal;HPM_P1;HPM_P2
2021/06/29 00:01:19;;;;;;;;;;;24.80;99.90;;;;;;5104777;28;20393;-74
2021/06/29 00:03:44;;;;;;;;;;;24.70;99.90;;;;;;5110301;28;19911;-73
2021/06/29 00:06:10;;;;;;;;;;;24.60;99.90;;;;;;5114600;28;19930;-74
2021/06/29 00:08:35;;;;;;;;;;;24.50;99.90;;;;;;5104597;27;19912;-74
2021/06/29 00:11:01;;;;;;;;;;;24.40;99.90;;;;;;5120948;27;20065;-74
2021/06/29 00:13:26;;;;;;;;;;;24.40;99.90;;;;;;5116900;27;19919;-74
2021/06/29 00:15:52;;;;;;;;;;;24.40;99.90;;;;;;5133196;27;19992;-73
2021/06/29 00:18:18;;;;;;;;;;;24.60;99.90;;;;;;5111979;27;19930;-73
2021/06/29 00:20:43;;;;;;;;;;;24.70;99.90;;;;;;5117121;27;20334;-74
2021/06/29 00:23:09;;;;;;;;;;;24.70;99.90;;;;;;5115717;27;19907;-74
2021/06/29 00:25:35;;;;;;;;;;;24.70;99.90;;;;;;5115564;27;19912;-73
2021/06/29 00:28:01;;;;;;;;;;;24.60;99.90;;;;;;5113623;27;19927;-72
2021/06/29 00:30:26;;;;;;;;;;;24.60;99.90;;;;;;5117192;27;19918;-74
2021/06/29 00:32:52;;;;;;;;;;;24.60;99.90;;;;;;5104676;27;19918;-73
2021/06/29 00:35:17;;;;;;;;;;;24.60;99.90;;;;;;5111878;27;20411;-73
2021/06/29 00:37:43;;;;;;;;;;;24.60;99.90;;;;;;5118207;27;19934;-74
2021/06/29 00:40:09;;;;;;;;;;;24.60;99.90;;;;;;5101155;27;19912;-74
2021/06/29 00:42:35;;;;;;;;;;;24.80;99.90;;;;;;5109063;28;20462;-74
2021/06/29 00:45:00;;;;;;;;;;;24.80;99.90;;;;;;5115218;27;20012;-74
2021/06/29 00:47:26;;;;;;;;;;;24.80;99.90;;;;;;5118633;27;20377;-74
2021/06/29 00:49:52;;;;;;;;;;;24.80;99.90;;;;;;5111344;27;20328;-73
2021/06/29 00:52:17;;;;;;;;;;;24.90;99.90;;;;;;5109166;28;19912;-73
2021/06/29 00:54:43;;;;;;;;;;;24.90;99.90;;;;;;5110003;27;19907;-73
2021/06/29 00:57:10;;;;;;;;;;;24.80;99.90;;;;;;5122380;27;19956;-73
2021/06/29 00:59:37;;;;;;;;;;;24.60;99.90;;;;;;5117294;27;20399;-73
2021/06/29 01:02:02;;;;;;;;;;;24.60;99.90;;;;;;5112645;27;19912;-73
2021/06/29 01:04:28;;;;;;;;;;;24.60;99.90;;;;;;5108723;28;19926;-73
2021/06/29 01:06:53;;;;;;;;;;;24.70;99.90;;;;;;5111412;27;19916;-73
2021/06/29 01:09:20;;;;;;;;;;;24.60;99.90;;;;;;5120289;27;19961;-74
2021/06/29 01:11:46;;;;;;;;;;;24.50;99.90;;;;;;5127673;27;20401;-73
2021/06/29 01:14:13;;;;;;;;;;;24.60;99.90;;;;;;5103334;27;19986;-73
2021/06/29 01:16:39;;;;;;;;;;;24.70;99.90;;;;;;5113319;27;20350;-73
2021/06/29 01:19:05;;;;;;;;;;;24.70;99.90;;;;;;5113255;27;19931;-73
2021/06/29 01:21:40;;;;;;;;;;;24.60;99.90;;;;;;5123983;27;19927;-73
2021/06/29 01:24:10;;;;;;;;;;;24.60;99.90;;;;;;5119429;27;19915;-74
2021/06/29 01:26:40;;;;;;;;;;;24.60;99.90;;;;;;5110178;27;20033;-74
2021/06/29 01:29:06;;;;;;;;;;;24.60;99.90;;;;;;5125424;27;19952;-74
2021/06/29 01:31:36;;;;;;;;;;;24.70;99.90;;;;;;5118856;27;19911;-73
2021/06/29 01:34:02;;;;;;;;;;;24.70;99.90;;;;;;5115999;27;19916;-74
2021/06/29 01:36:33;;;;;;;;;;;24.60;99.90;;;;;;5120166;27;19954;-74
2021/06/29 01:38:58;;;;;;;;;;;24.60;99.90;;;;;;5099720;27;20365;-74
2021/06/29 01:41:25;;;;;;;;;;;24.50;99.90;;;;;;5120898;27;19940;-74
2021/06/29 01:46:41;;;;;;;;;;;24.50;99.90;;;;;;5105755;27;20019;-74
2021/06/29 01:49:07;;;;;;;;;;;24.40;99.90;;;;;;5114164;27;20129;-73
2021/06/29 01:51:32;;;;;;;;;;;24.20;99.90;;;;;;5118697;27;20029;-74
2021/06/29 01:53:58;;;;;;;;;;;24.20;99.90;;;;;;5115267;27;20010;-73
2021/06/29 01:56:28;;;;;;;;;;;24.20;99.90;;;;;;5108640;27;19946;-73
2021/06/29 01:58:55;;;;;;;;;;;24.10;99.90;;;;;;5092450;27;19911;-74
2021/06/29 02:01:21;;;;;;;;;;;24.10;99.90;;;;;;5112523;27;20403;-74
2021/06/29 02:03:47;;;;;;;;;;;24.20;99.90;;;;;;5120436;27;19990;-74
2021/06/29 02:06:13;;;;;;;;;;;24.30;99.90;;;;;;5111567;27;19922;-74
2021/06/29 02:08:39;;;;;;;;;;;24.30;99.90;;;;;;5118074;27;19916;-74
2021/06/29 02:11:04;;;;;;;;;;;24.30;99.90;;;;;;5118653;27;19912;-74
2021/06/29 02:13:30;;;;;;;;;;;24.40;99.90;;;;;;5120142;27;19912;-74
2021/06/29 02:15:56;;;;;;;;;;;24.30;99.90;;;;;;5118544;27;20369;-74
2021/06/29 02:18:23;;;;;;;;;;;24.30;99.90;;;;;;5119740;27;19912;-74
2021/06/29 02:20:49;;;;;;;;;;;24.20;99.90;;;;;;5118699;27;19908;-74
2021/06/29 02:23:14;;;;;;;;;;;24.20;99.90;;;;;;5128324;27;20101;-74
2021/06/29 02:25:40;;;;;;;;;;;24.40;99.90;;;;;;5111324;27;20659;-74
2021/06/29 02:28:06;;;;;;;;;;;24.30;99.90;;;;;;5099173;28;19923;-74
2021/06/29 02:30:31;;;;;;;;;;;24.20;99.90;;;;;;5118777;27;20380;-74
2021/06/29 02:32:57;;;;;;;;;;;24.40;99.90;;;;;;5115099;27;19919;-74
2021/06/29 02:35:22;;;;;;;;;;;24.40;99.90;;;;;;5110138;27;19930;-74
2021/06/29 02:37:48;;;;;;;;;;;24.50;99.90;;;;;;5117217;27;19912;-73
2021/06/29 02:40:14;;;;;;;;;;;24.40;99.90;;;;;;5110169;27;19969;-74
2021/06/29 02:42:39;;;;;;;;;;;24.30;99.90;;;;;;5120695;27;20336;-74
2021/06/29 02:45:07;;;;;;;;;;;24.30;99.90;;;;;;5118207;27;20430;-74
2021/06/29 02:47:36;;;;;;;;;;;24.30;99.90;;;;;;5123733;27;19915;-75
2021/06/29 02:50:07;;;;;;;;;;;24.20;99.90;;;;;;5109701;27;19912;-75
2021/06/29 02:52:33;;;;;;;;;;;24.20;99.90;;;;;;5091068;28;19919;-74
2021/06/29 02:54:59;;;;;;;;;;;24.20;99.90;;;;;;5115327;27;19916;-75
2021/06/29 02:57:24;;;;;;;;;;;24.30;99.90;;;;;;5102999;27;19911;-74
2021/06/29 02:59:50;;;;;;;;;;;24.30;99.90;;;;;;5114779;27;19938;-74
2021/06/29 03:02:15;;;;;;;;;;;24.40;99.90;;;;;;5112247;27;19955;-74
2021/06/29 03:04:41;;;;;;;;;;;24.40;99.90;;;;;;5108524;27;20282;-74
2021/06/29 03:07:07;;;;;;;;;;;24.40;99.90;;;;;;5120558;27;19955;-74
2021/06/29 03:09:32;;;;;;;;;;;24.30;99.90;;;;;;5110715;28;19934;-75
2021/06/29 03:11:58;;;;;;;;;;;24.20;99.90;;;;;;5115759;27;20005;-74
2021/06/29 03:14:24;;;;;;;;;;;24.10;99.90;;;;;;5111976;27;20415;-74
2021/06/29 03:16:51;;;;;;;;;;;24.20;99.90;;;;;;5110441;28;19908;-75
2021/06/29 03:19:17;;;;;;;;;;;24.20;99.90;;;;;;5108674;28;20266;-74
2021/06/29 03:21:42;;;;;;;;;;;24.30;99.90;;;;;;5114781;27;19990;-74
2021/06/29 03:24:08;;;;;;;;;;;24.30;99.90;;;;;;5107120;28;19919;-75
2021/06/29 03:26:34;;;;;;;;;;;24.30;99.90;;;;;;5113668;27;20258;-74
2021/06/29 03:29:00;;;;;;;;;;;24.30;99.90;;;;;;5107398;27;19920;-74
2021/06/29 03:31:25;;;;;;;;;;;24.30;99.90;;;;;;5117196;27;19908;-74
2021/06/29 03:33:51;;;;;;;;;;;24.30;99.90;;;;;;5111280;27;19923;-74
2021/06/29 03:36:17;;;;;;;;;;;24.30;99.90;;;;;;5112253;27;19915;-73
2021/06/29 03:38:42;;;;;;;;;;;24.30;99.90;;;;;;5100728;28;19912;-74
2021/06/29 03:41:08;;;;;;;;;;;24.30;99.90;;;;;;5117567;27;19908;-75
2021/06/29 03:43:36;;;;;;;;;;;24.30;99.90;;;;;;5111415;28;20401;-74
2021/06/29 03:46:02;;;;;;;;;;;24.40;99.90;;;;;;5114752;27;20377;-75
2021/06/29 03:48:28;;;;;;;;;;;24.40;99.90;;;;;;5101397;28;19941;-75
2021/06/29 03:50:54;;;;;;;;;;;24.40;99.90;;;;;;5117625;27;20350;-74
2021/06/29 03:53:19;;;;;;;;;;;24.40;99.90;;;;;;5109725;27;19919;-74
2021/06/29 03:55:45;;;;;;;;;;;24.50;99.90;;;;;;5103183;27;20052;-75
2021/06/29 03:58:10;;;;;;;;;;;24.40;99.90;;;;;;5109632;28;19919;-76
2021/06/29 04:00:36;;;;;;;;;;;24.50;99.90;;;;;;5104517;28;19935;-75
2021/06/29 04:03:01;;;;;;;;;;;24.50;99.90;;;;;;5106978;28;19924;-75
2021/06/29 04:05:27;;;;;;;;;;;24.50;99.90;;;;;;5111555;27;19947;-75
2021/06/29 04:07:53;;;;;;;;;;;24.60;99.90;;;;;;5113189;28;19916;-75
2021/06/29 04:10:18;;;;;;;;;;;24.60;99.90;;;;;;5100518;28;19950;-74
2021/06/29 04:12:44;;;;;;;;;;;24.70;99.90;;;;;;5109083;28;20316;-75
2021/06/29 04:15:10;;;;;;;;;;;24.70;99.90;;;;;;5121952;28;19912;-75
2021/06/29 04:17:36;;;;;;;;;;;24.80;99.90;;;;;;5105358;28;20416;-74
2021/06/29 04:20:02;;;;;;;;;;;24.80;99.90;;;;;;5106028;28;19919;-75
2021/06/29 04:22:28;;;;;;;;;;;24.80;99.90;;;;;;5120889;28;19923;-74
2021/06/29 04:24:53;;;;;;;;;;;24.90;99.90;;;;;;5103336;28;19912;-75
2021/06/29 04:27:22;;;;;;;;;;;25.00;99.90;;;;;;5114433;28;19916;-75
2021/06/29 04:29:48;;;;;;;;;;;24.90;99.90;;;;;;5098989;28;20369;-75
2021/06/29 04:32:13;;;;;;;;;;;25.00;99.90;;;;;;5122914;28;19908;-76
2021/06/29 04:34:39;;;;;;;;;;;25.00;99.90;;;;;;5106049;28;19956;-75
2021/06/29 04:37:05;;;;;;;;;;;25.00;99.90;;;;;;5105448;28;19920;-73
2021/06/29 04:39:30;;;;;;;;;;;25.10;99.90;;;;;;5105099;28;19912;-74
2021/06/29 04:41:56;;;;;;;;;;;25.10;99.90;;;;;;5117444;27;20453;-75
2021/06/29 04:44:21;;;;;;;;;;;25.10;99.90;;;;;;5108580;28;19915;-75
2021/06/29 04:46:49;;;;;;;;;;;25.20;99.90;;;;;;5111849;28;19916;-75
2021/06/29 04:49:16;;;;;;;;;;;25.20;99.90;;;;;;5104680;28;19918;-74
2021/06/29 04:51:41;;;;;;;;;;;25.30;99.90;;;;;;5109704;28;19912;-74
2021/06/29 04:54:07;;;;;;;;;;;25.30;99.90;;;;;;5114720;27;19942;-74
2021/06/29 04:56:32;;;;;;;;;;;25.30;99.90;;;;;;5121886;27;19914;-74
2021/06/29 04:58:58;;;;;;;;;;;25.30;99.90;;;;;;5107620;27;19916;-74
2021/06/29 05:01:24;;;;;;;;;;;25.40;99.90;;;;;;5099472;28;19916;-76
2021/06/29 05:03:50;;;;;;;;;;;25.40;99.90;;;;;;5122778;27;19911;-74
2021/06/29 05:06:16;;;;;;;;;;;25.50;99.90;;;;;;5112537;27;19915;-75
2021/06/29 05:08:42;;;;;;;;;;;25.60;99.90;;;;;;5112018;27;19916;-68
2021/06/29 05:11:07;;;;;;;;;;;25.60;99.90;;;;;;5125378;27;19915;-70
2021/06/29 05:13:33;;;;;;;;;;;25.50;99.90;;;;;;5112435;28;19916;-72
2021/06/29 05:15:59;;;;;;;;;;;25.60;99.90;;;;;;5110848;27;19918;-71
2021/06/29 05:18:25;;;;;;;;;;;25.70;99.90;;;;;;5104183;27;19923;-72
2021/06/29 05:20:50;;;;;;;;;;;25.80;99.90;;;;;;5111731;27;19915;-72
2021/06/29 05:23:16;;;;;;;;;;;25.90;99.90;;;;;;5112823;27;20025;-72
2021/06/29 05:25:41;;;;;;;;;;;26.00;99.90;;;;;;5104426;28;19973;-72
2021/06/29 05:28:07;;;;;;;;;;;26.00;99.90;;;;;;5101218;28;19932;-71
2021/06/29 05:30:33;;;;;;;;;;;26.10;99.90;;;;;;5112044;27;20384;-72
2021/06/29 05:32:58;;;;;;;;;;;26.10;99.90;;;;;;5103363;28;19927;-72
2021/06/29 05:35:27;;;;;;;;;;;26.10;99.90;;;;;;5111991;27;19938;-73
2021/06/29 05:37:53;;;;;;;;;;;26.20;99.90;;;;;;5121347;27;20002;-74
2021/06/29 05:40:18;;;;;;;;;;;26.30;99.90;;;;;;5122987;27;19994;-72
2021/06/29 05:42:44;;;;;;;;;;;26.40;99.90;;;;;;5115974;27;19915;-73
2021/06/29 05:45:12;;;;;;;;;;;26.50;99.90;;;;;;5108748;28;20288;-72
2021/06/29 05:47:38;;;;;;;;;;;26.40;99.90;;;;;;5111128;28;20477;-72
2021/06/29 05:50:04;;;;;;;;;;;26.40;99.90;;;;;;5112808;27;19964;-72
2021/06/29 05:52:30;;;;;;;;;;;26.50;99.90;;;;;;5122815;27;19959;-71
2021/06/29 05:54:56;;;;;;;;;;;26.60;99.90;;;;;;5122108;27;19912;-72
2021/06/29 05:57:21;;;;;;;;;;;26.80;99.90;;;;;;5111863;27;19912;-72
2021/06/29 05:59:47;;;;;;;;;;;27.00;99.90;;;;;;5097017;28;20300;-72
2021/06/29 06:02:13;;;;;;;;;;;27.00;99.90;;;;;;5111483;28;19923;-71
2021/06/29 06:04:38;;;;;;;;;;;27.10;99.90;;;;;;5117293;27;19911;-72
2021/06/29 06:07:05;;;;;;;;;;;27.30;99.90;;;;;;5129790;27;19959;-66
2021/06/29 06:09:31;;;;;;;;;;;27.30;99.90;;;;;;5110584;27;19951;-69
2021/06/29 06:11:57;;;;;;;;;;;27.20;99.90;;;;;;5129283;27;19908;-66
2021/06/29 06:14:22;;;;;;;;;;;27.20;99.90;;;;;;5116246;27;19915;-65
2021/06/29 06:16:48;;;;;;;;;;;27.30;99.90;;;;;;5118851;27;19918;-66
2021/06/29 06:19:13;;;;;;;;;;;27.40;99.90;;;;;;5112218;27;19972;-66
2021/06/29 06:21:39;;;;;;;;;;;27.50;99.90;;;;;;5125579;27;19907;-69
2021/06/29 06:24:06;;;;;;;;;;;27.60;99.90;;;;;;5120011;27;19912;-69
2021/06/29 06:26:31;;;;;;;;;;;27.70;99.90;;;;;;5120069;27;20392;-68
2021/06/29 06:28:57;;;;;;;;;;;27.60;99.90;;;;;;5120264;27;19964;-67
2021/06/29 06:31:22;;;;;;;;;;;27.60;99.90;;;;;;5112314;27;19908;-66
2021/06/29 06:34:10;;;;;;;;;;;27.70;99.90;;;;;;5088163;27;20920;-65
2021/06/29 06:36:35;;;;;;;;;;;27.80;99.90;;;;;;5118164;27;19912;-67
2021/06/29 06:39:01;;;;;;;;;;;28.10;99.90;;;;;;5109085;27;20365;-66
2021/06/29 06:41:26;;;;;;;;;;;28.30;99.90;;;;;;5124401;27;19920;-67
2021/06/29 06:43:52;;;;;;;;;;;28.30;99.90;;;;;;5124750;27;19908;-67
2021/06/29 06:46:17;;;;;;;;;;;28.30;99.90;;;;;;5111415;27;19911;-68
2021/06/29 06:48:43;;;;;;;;;;;28.40;99.90;;;;;;5101529;27;19908;-68
2021/06/29 06:51:09;;;;;;;;;;;28.60;99.90;;;;;;5100529;28;20003;-66
2021/06/29 06:53:35;;;;;;;;;;;28.80;99.90;;;;;;5116480;27;19907;-66
2021/06/29 06:56:01;;;;;;;;;;;28.80;99.90;;;;;;5115971;27;19919;-65
2021/06/29 06:58:26;;;;;;;;;;;28.90;99.90;;;;;;5115791;27;19934;-66
2021/06/29 07:00:52;;;;;;;;;;;29.00;99.90;;;;;;5119683;27;19911;-67
2021/06/29 07:03:18;;;;;;;;;;;29.10;99.90;;;;;;5116150;27;20025;-65
2021/06/29 07:05:44;;;;;;;;;;;29.40;99.90;;;;;;5112052;27;19912;-65
2021/06/29 07:08:09;;;;;;;;;;;29.50;99.90;;;;;;5104817;27;20295;-68
2021/06/29 07:10:35;;;;;;;;;;;29.50;99.90;;;;;;5121332;27;20002;-66
2021/06/29 07:13:00;;;;;;;;;;;29.50;99.90;;;;;;5116486;27;19919;-64
2021/06/29 07:15:28;;;;;;;;;;;29.60;99.90;;;;;;5119471;27;19918;-64
2021/06/29 07:17:54;;;;;;;;;;;29.50;99.90;;;;;;5114894;27;20331;-64
2021/06/29 07:20:19;;;;;;;;;;;29.40;99.90;;;;;;5116644;27;19916;-65
2021/06/29 07:22:45;;;;;;;;;;;29.20;99.90;;;;;;5111618;27;19958;-65
2021/06/29 07:25:11;;;;;;;;;;;29.40;99.90;;;;;;5112798;27;19947;-66
2021/06/29 07:27:37;;;;;;;;;;;29.50;99.90;;;;;;5115225;27;19961;-73
2021/06/29 07:30:03;;;;;;;;;;;29.50;99.90;;;;;;5105747;27;20297;-70
2021/06/29 07:32:29;;;;;;;;;;;29.40;99.90;;;;;;5123500;27;19914;-69
2021/06/29 07:34:55;;;;;;;;;;;29.60;99.90;;;;;;5120087;27;20462;-69
2021/06/29 07:37:20;;;;;;;;;;;29.50;99.90;;;;;;5115179;27;19934;-71
2021/06/29 07:39:46;;;;;;;;;;;29.60;99.90;;;;;;5117806;27;20293;-72
2021/06/29 07:42:11;;;;;;;;;;;29.60;99.90;;;;;;5128706;27;19917;-71
2021/06/29 07:44:37;;;;;;;;;;;29.70;99.90;;;;;;5106363;28;19916;-70
2021/06/29 07:47:02;;;;;;;;;;;29.90;99.90;;;;;;5109573;28;19988;-64
2021/06/29 07:49:28;;;;;;;;;;;29.70;99.90;;;;;;5109345;27;19912;-63
2021/06/29 07:51:54;;;;;;;;;;;29.50;99.90;;;;;;5109568;28;20354;-64
2021/06/29 07:54:20;;;;;;;;;;;29.20;99.90;;;;;;5114826;28;20373;-70
2021/06/29 07:56:45;;;;;;;;;;;29.30;99.90;;;;;;5100680;27;19912;-70
2021/06/29 08:02:59;;;;;;;;;;;29.80;99.90;;;;;;5103385;27;19916;-68
2021/06/29 08:05:25;;;;;;;;;;;29.90;99.90;;;;;;5104013;28;20288;-66
2021/06/29 08:07:50;;;;;;;;;;;29.90;99.90;;;;;;5105322;28;19957;-66
2021/06/29 08:10:16;;;;;;;;;;;29.90;99.90;;;;;;5106152;28;20527;-66
2021/06/29 08:12:42;;;;;;;;;;;29.90;99.90;;;;;;5106329;28;19908;-67
2021/06/29 08:15:09;;;;;;;;;;;30.00;99.90;;;;;;5105972;28;20003;-67
2021/06/29 08:17:34;;;;;;;;;;;30.00;99.90;;;;;;5100901;28;19931;-67
2021/06/29 08:20:00;;;;;;;;;;;30.00;99.90;;;;;;5100356;28;20345;-67
2021/06/29 08:22:25;;;;;;;;;;;30.00;99.90;;;;;;5107913;28;19997;-66
2021/06/29 08:24:51;;;;;;;;;;;30.10;99.90;;;;;;5103399;28;19919;-66
2021/06/29 08:27:17;;;;;;;;;;;30.20;99.90;;;;;;5105463;28;19912;-67
2021/06/29 08:29:43;;;;;;;;;;;30.30;99.90;;;;;;5104584;28;19912;-67
2021/06/29 08:32:09;;;;;;;;;;;30.50;99.90;;;;;;5107944;28;19919;-66
2021/06/29 08:34:35;;;;;;;;;;;30.60;99.90;;;;;;5102316;28;19911;-66
2021/06/29 08:37:00;;;;;;;;;;;30.50;99.90;;;;;;5105977;28;19919;-66
2021/06/29 08:39:26;;;;;;;;;;;30.50;99.90;;;;;;5104436;28;19965;-67
2021/06/29 08:41:51;;;;;;;;;;;30.70;99.90;;;;;;5103472;28;19925;-67
2021/06/29 08:44:18;;;;;;;;;;;30.60;99.90;;;;;;5105517;28;19912;-67
2021/06/29 08:46:43;;;;;;;;;;;30.60;99.90;;;;;;5106586;28;19915;-65
2021/06/29 08:49:09;;;;;;;;;;;30.50;99.90;;;;;;5104319;28;19912;-66
2021/06/29 08:51:37;;;;;;;;;;;30.60;99.90;;;;;;5102695;28;19948;-66
2021/06/29 08:54:03;;;;;;;;;;;30.50;99.90;;;;;;5103080;28;19912;-66
2021/06/29 08:56:30;;;;;;;;;;;30.20;99.90;;;;;;5104153;28;19965;-65
2021/06/29 08:58:56;;;;;;;;;;;30.30;99.90;;;;;;5102166;28;19995;-67
2021/06/29 09:01:24;;;;;;;;;;;30.30;99.90;;;;;;5099224;28;19916;-66
2021/06/29 09:03:50;;;;;;;;;;;30.40;99.90;;;;;;5102026;28;19916;-66
2021/06/29 09:06:27;;;;;;;;;;;30.50;99.90;;;;;;5107364;28;19908;-66
2021/06/29 09:08:53;;;;;;;;;;;30.60;99.90;;;;;;5104012;28;19912;-66
2021/06/29 09:11:19;;;;;;;;;;;30.60;99.90;;;;;;5103149;28;20342;-65
2021/06/29 09:14:03;;;;;;;;;;;30.70;99.90;;;;;;5092973;28;19970;-65
2021/06/29 09:18:49;;;;;;;;;;;30.10;99.90;;;;;;5099677;27;19962;-69
2021/06/29 09:21:15;;;;;;;;;;;30.30;99.90;;;;;;5101235;28;20014;-68
2021/06/29 09:23:42;;;;;;;;;;;30.50;99.90;;;;;;5109565;28;19972;-69
2021/06/29 09:26:08;;;;;;;;;;;30.70;99.90;;;;;;5108393;28;19951;-66
2021/06/29 09:28:35;;;;;;;;;;;30.70;99.90;;;;;;5105652;28;19951;-67
2021/06/29 09:31:06;;;;;;;;;;;30.80;99.90;;;;;;5118942;28;19961;-68
2021/06/29 09:33:35;;;;;;;;;;;31.00;99.90;;;;;;5114691;28;20439;-67
2021/06/29 09:36:02;;;;;;;;;;;31.00;99.90;;;;;;5104916;28;20006;-67
2021/06/29 09:38:30;;;;;;;;;;;31.00;99.90;;;;;;5107429;28;19954;-67
2021/06/29 09:41:19;;;;;;;;;;;31.00;99.90;;;;;;5103622;28;19919;-66
2021/06/29 09:43:45;;;;;;;;;;;31.10;99.90;;;;;;5099948;28;19948;-67
2021/06/29 09:46:12;;;;;;;;;;;31.30;99.90;;;;;;5095846;28;19966;-67
2021/06/29 09:48:40;;;;;;;;;;;31.30;99.90;;;;;;5095727;28;19919;-67
2021/06/29 09:51:09;;;;;;;;;;;31.30;99.90;;;;;;5099102;28;19912;-68
2021/06/29 09:53:39;;;;;;;;;;;31.30;99.90;;;;;;5103794;28;19919;-67
2021/06/29 09:56:11;;;;;;;;;;;31.40;99.90;;;;;;5103378;28;19912;-67
2021/06/29 09:58:36;;;;;;;;;;;31.50;99.90;;;;;;5100618;28;20297;-68
2021/06/29 10:01:02;;;;;;;;;;;31.60;99.90;;;;;;5100390;28;19999;-69
2021/06/29 10:03:30;;;;;;;;;;;31.60;99.90;;;;;;5106959;28;20381;-66
2021/06/29 10:05:57;;;;;;;;;;;31.40;99.90;;;;;;5106980;28;20324;-70
2021/06/29 10:08:25;;;;;;;;;;;31.50;99.90;;;;;;5108709;28;19939;-71
2021/06/29 10:11:06;;;;;;;;;;;31.50;99.90;;;;;;5105483;28;19959;-71
2021/06/29 10:13:34;;;;;;;;;;;31.60;99.90;;;;;;5105618;28;19987;-71
2021/06/29 10:15:59;;;;;;;;;;;31.40;99.90;;;;;;5104631;28;19913;-72
2021/06/29 10:18:25;;;;;;;;;;;30.90;99.90;;;;;;5105922;28;20368;-72
2021/06/29 10:20:57;;;;;;;;;;;30.60;99.90;;;;;;5104834;28;19922;-71
2021/06/29 10:23:24;;;;;;;;;;;30.60;99.90;;;;;;5106333;28;19938;-72
2021/06/29 10:25:50;;;;;;;;;;;30.50;99.90;;;;;;5103993;28;19912;-72
2021/06/29 10:28:16;;;;;;;;;;;30.30;99.90;;;;;;5104227;28;19952;-72
2021/06/29 10:30:42;;;;;;;;;;;30.30;99.90;;;;;;5089895;28;19942;-72
2021/06/29 10:33:08;;;;;;;;;;;30.30;99.90;;;;;;5093227;28;19934;-73
2021/06/29 10:35:34;;;;;;;;;;;30.20;99.90;;;;;;5092434;28;19912;-72
2021/06/29 10:38:00;;;;;;;;;;;30.10;99.90;;;;;;5093183;28;20350;-71
2021/06/29 10:40:26;;;;;;;;;;;30.10;99.90;;;;;;5089941;28;20002;-71
2021/06/29 10:42:55;;;;;;;;;;;30.00;99.90;;;;;;5091829;28;19926;-74
2021/06/29 10:45:21;;;;;;;;;;;29.80;99.90;;;;;;5089961;28;20337;-73
2021/06/29 10:47:47;;;;;;;;;;;29.70;99.90;;;;;;5091083;28;19916;-72
2021/06/29 10:50:14;;;;;;;;;;;29.70;99.90;;;;;;5092868;28;19912;-71
2021/06/29 10:52:41;;;;;;;;;;;29.60;99.90;;;;;;5090838;28;19919;-72
2021/06/29 10:55:22;;;;;;;;;;;29.60;99.90;;;;;;5085195;28;19920;-70
2021/06/29 10:57:49;;;;;;;;;;;29.60;99.90;;;;;;5088404;28;19923;-71
2021/06/29 11:00:22;;;;;;;;;;;29.60;99.90;;;;;;5090667;28;19919;-72
2021/06/29 11:02:58;;;;;;;;;;;29.70;99.90;;;;;;5092510;28;19927;-72
2021/06/29 11:05:25;;;;;;;;;;;29.90;99.90;;;;;;5087696;28;19912;-72
2021/06/29 11:07:51;;;;;;;;;;;30.10;99.90;;;;;;5091419;28;19912;-71
2021/06/29 11:10:28;;;;;;;;;;;30.10;99.90;;;;;;5091496;28;20041;-71
2021/06/29 11:12:56;;;;;;;;;;;30.20;99.90;;;;;;5092414;28;20533;-72
2021/06/29 11:15:45;;;;;;;;;;;30.30;99.90;;;;;;5086736;28;20014;-74
2021/06/29 11:18:11;;;;;;;;;;;30.30;99.90;;;;;;5080394;28;19916;-74
2021/06/29 11:20:38;;;;;;;;;;;30.30;99.90;;;;;;5092354;28;19992;-73
2021/06/29 11:23:05;;;;;;;;;;;30.30;99.90;;;;;;5090663;28;20318;-71
2021/06/29 11:25:33;;;;;;;;;;;30.40;99.90;;;;;;5084408;28;19912;-72
2021/06/29 11:28:05;;;;;;;;;;;30.50;99.90;;;;;;5089133;28;20007;-73
2021/06/29 11:30:49;;;;;;;;;;;30.40;99.90;;;;;;5083906;28;20392;-71
2021/06/29 11:33:27;;;;;;;;;;;30.50;99.90;;;;;;5093135;28;19958;-72
2021/06/29 11:35:53;;;;;;;;;;;30.40;99.90;;;;;;5087345;28;19950;-71
2021/06/29 11:38:30;;;;;;;;;;;30.20;99.90;;;;;;5090141;28;19959;-72
2021/06/29 11:40:55;;;;;;;;;;;30.30;99.90;;;;;;5088934;28;19912;-73
2021/06/29 11:43:27;;;;;;;;;;;30.30;99.90;;;;;;5092092;28;20308;-73
2021/06/29 11:45:53;;;;;;;;;;;30.10;99.90;;;;;;5087953;28;19924;-72
2021/06/29 11:48:38;;;;;;;;;;;30.20;99.90;;;;;;5091981;28;19908;-72
2021/06/29 11:51:04;;;;;;;;;;;30.30;99.90;;;;;;5086874;28;19919;-72
2021/06/29 11:53:30;;;;;;;;;;;30.10;99.90;;;;;;5091836;28;20288;-72
2021/06/29 11:55:55;;;;;;;;;;;30.00;99.90;;;;;;5075439;28;19912;-71
2021/06/29 11:58:21;;;;;;;;;;;30.10;99.90;;;;;;5091507;28;19930;-71
2021/06/29 12:00:46;;;;;;;;;;;30.00;99.90;;;;;;5088405;28;19919;-72
2021/06/29 12:03:16;;;;;;;;;;;30.00;99.90;;;;;;5091210;28;19919;-71
2021/06/29 12:05:42;;;;;;;;;;;30.00;99.90;;;;;;5086184;28;19916;-71
2021/06/29 12:08:09;;;;;;;;;;;30.10;99.90;;;;;;5091224;28;20281;-72
2021/06/29 12:10:36;;;;;;;;;;;30.30;99.90;;;;;;5085851;28;19912;-72
2021/06/29 12:13:03;;;;;;;;;;;30.10;99.90;;;;;;5086128;28;20274;-71
2021/06/29 12:15:39;;;;;;;;;;;29.90;99.90;;;;;;5081339;28;19966;-73
2021/06/29 12:18:09;;;;;;;;;;;29.90;99.90;;;;;;5088656;28;20374;-74
2021/06/29 12:20:40;;;;;;;;;;;30.00;99.90;;;;;;5077418;28;19923;-73
2021/06/29 12:23:08;;;;;;;;;;;29.90;99.90;;;;;;5090248;28;20007;-71
2021/06/29 12:25:33;;;;;;;;;;;29.90;99.90;;;;;;5085394;28;20378;-71
2021/06/29 12:28:01;;;;;;;;;;;29.70;99.90;;;;;;5087217;28;19957;-71
2021/06/29 12:30:27;;;;;;;;;;;29.60;99.90;;;;;;5084659;28;19912;-72
2021/06/29 12:32:52;;;;;;;;;;;29.50;99.90;;;;;;5089926;28;20520;-71
2021/06/29 12:35:19;;;;;;;;;;;29.50;99.90;;;;;;5086575;28;19923;-70
2021/06/29 12:37:54;;;;;;;;;;;29.60;99.90;;;;;;5089803;28;19916;-72
2021/06/29 12:40:21;;;;;;;;;;;29.80;99.90;;;;;;5080999;28;19912;-72
2021/06/29 12:42:46;;;;;;;;;;;29.90;99.90;;;;;;5081062;28;19912;-71
2021/06/29 12:45:12;;;;;;;;;;;30.00;99.90;;;;;;5089496;28;19915;-70
2021/06/29 12:47:38;;;;;;;;;;;30.10;99.90;;;;;;5090712;28;20002;-70
2021/06/29 12:50:04;;;;;;;;;;;30.00;99.90;;;;;;5085869;28;20007;-72
2021/06/29 12:52:30;;;;;;;;;;;29.70;99.90;;;;;;5083478;28;19916;-73
2021/06/29 12:55:07;;;;;;;;;;;29.70;99.90;;;;;;5090482;28;20007;-72
2021/06/29 12:57:38;;;;;;;;;;;29.50;99.90;;;;;;5088521;28;19916;-71
2021/06/29 13:00:05;;;;;;;;;;;29.60;99.90;;;;;;5089338;28;19958;-73
2021/06/29 13:02:32;;;;;;;;;;;29.40;99.90;;;;;;5081127;28;19913;-71
2021/06/29 13:05:00;;;;;;;;;;;29.50;99.90;;;;;;5070235;28;20018;-71
2021/06/29 13:07:25;;;;;;;;;;;29.50;99.90;;;;;;5084733;28;19965;-69
2021/06/29 13:09:51;;;;;;;;;;;29.60;99.90;;;;;;5090072;28;19916;-69
2021/06/29 13:12:21;;;;;;;;;;;29.60;99.90;;;;;;5087682;28;20333;-69
2021/06/29 13:14:52;;;;;;;;;;;29.70;99.90;;;;;;5083010;28;19912;-70
2021/06/29 13:17:18;;;;;;;;;;;29.70;99.90;;;;;;5090218;28;20373;-69
2021/06/29 13:19:44;;;;;;;;;;;29.70;99.90;;;;;;5088367;28;19973;-70
2021/06/29 13:22:10;;;;;;;;;;;29.60;99.90;;;;;;5090186;28;19908;-69
2021/06/29 13:24:47;;;;;;;;;;;29.60;99.90;;;;;;5083080;28;19919;-71
2021/06/29 13:27:22;;;;;;;;;;;29.60;99.90;;;;;;5070304;28;20004;-70
2021/06/29 13:29:48;;;;;;;;;;;29.50;99.90;;;;;;5089093;28;19919;-70
2021/06/29 13:32:18;;;;;;;;;;;29.50;99.90;;;;;;5079309;28;19991;-69
2021/06/29 13:34:44;;;;;;;;;;;29.60;99.90;;;;;;5078636;28;20375;-70
2021/06/29 13:37:38;;;;;;;;;;;29.60;99.90;;;;;;5087507;28;19923;-70
2021/06/29 13:40:32;;;;;;;;;;;29.60;99.90;;;;;;5078574;28;19912;-69
2021/06/29 13:43:03;;;;;;;;;;;29.70;99.90;;;;;;5077973;28;19913;-70
2021/06/29 13:45:37;;;;;;;;;;;29.70;99.90;;;;;;5080946;28;20265;-71
2021/06/29 13:48:03;;;;;;;;;;;29.70;99.90;;;;;;5088461;28;19919;-72
2021/06/29 13:50:33;;;;;;;;;;;29.70;99.90;;;;;;5069688;28;20368;-71
2021/06/29 13:53:00;;;;;;;;;;;29.70;99.90;;;;;;5069973;28;20003;-70
2021/06/29 13:55:30;;;;;;;;;;;29.50;99.90;;;;;;5070255;28;20305;-71
2021/06/29 13:58:14;;;;;;;;;;;29.60;99.90;;;;;;5074657;28;19912;-74
2021/06/29 14:00:43;;;;;;;;;;;29.80;99.90;;;;;;5093510;28;19912;-74
2021/06/29 14:03:10;;;;;;;;;;;29.70;99.90;;;;;;5092367;28;19916;-73
2021/06/29 14:05:38;;;;;;;;;;;29.60;99.90;;;;;;5086763;28;19916;-73
2021/06/29 14:08:10;;;;;;;;;;;29.60;99.90;;;;;;5082871;28;19916;-72
2021/06/29 14:10:35;;;;;;;;;;;29.60;99.90;;;;;;5079394;28;19955;-73
2021/06/29 14:13:01;;;;;;;;;;;29.70;99.90;;;;;;5095838;28;19912;-69
2021/06/29 14:15:27;;;;;;;;;;;29.90;99.90;;;;;;5089377;28;19949;-68
2021/06/29 14:17:52;;;;;;;;;;;30.20;99.90;;;;;;5084786;28;19969;-69
2021/06/29 14:20:18;;;;;;;;;;;30.50;99.90;;;;;;5091620;28;19974;-69
2021/06/29 14:22:43;;;;;;;;;;;30.90;99.90;;;;;;5084615;28;19916;-69
2021/06/29 14:25:10;;;;;;;;;;;30.80;99.90;;;;;;5073168;28;19977;-69